createdAt,value
2024-05-09T00:03:34.791Z,15.70
2024-05-09T00:07:17.286Z,15.60
2024-05-09T00:10:59.338Z,15.50
2024-05-09T00:14:41.370Z,15.40
2024-05-09T00:18:23.600Z,15.40
2024-05-09T00:22:05.680Z,15.30
2024-05-09T00:25:47.687Z,15.30
2024-05-09T00:29:29.742Z,15.20
2024-05-09T00:33:12.064Z,15.10
2024-05-09T00:36:54.158Z,15.10
2024-05-09T00:40:40.473Z,15.00
2024-05-09T00:44:24.608Z,15.00
2024-05-09T00:48:09.487Z,14.90
2024-05-09T00:51:54.378Z,14.80
2024-05-09T00:55:37.601Z,14.80
2024-05-09T00:59:20.000Z,14.70
2024-05-09T01:03:02.219Z,14.60
2024-05-09T01:06:44.335Z,14.60
2024-05-09T01:10:33.577Z,14.50
2024-05-09T01:14:17.251Z,14.50
2024-05-09T01:18:03.071Z,14.40
2024-05-09T01:21:45.070Z,14.30
2024-05-09T01:25:27.019Z,14.30
2024-05-09T01:29:09.066Z,14.20
2024-05-09T01:32:51.364Z,14.10
2024-05-09T01:36:33.470Z,14.00
2024-05-09T01:40:18.745Z,14.00
2024-05-09T01:44:06.824Z,13.90
2024-05-09T01:47:48.919Z,13.90
2024-05-09T01:51:30.896Z,13.80
2024-05-09T01:55:12.877Z,13.80
2024-05-09T01:58:54.979Z,13.70
2024-05-09T02:02:36.997Z,13.60
2024-05-09T02:06:19.048Z,13.60
2024-05-09T02:10:00.992Z,13.50
2024-05-09T02:13:42.940Z,13.50
2024-05-09T02:17:25.100Z,13.50
2024-05-09T02:21:09.189Z,13.50
2024-05-09T02:24:51.258Z,13.40
2024-05-09T02:28:33.159Z,13.30
2024-05-09T02:32:15.251Z,13.20
2024-05-09T02:35:57.308Z,13.20
2024-05-09T02:39:39.320Z,13.10
2024-05-09T02:43:21.254Z,13.10
2024-05-09T02:47:03.227Z,13.10
2024-05-09T02:50:45.324Z,13.20
2024-05-09T02:54:27.357Z,13.10
2024-05-09T02:58:10.085Z,13.10
2024-05-09T03:01:52.404Z,13.00
2024-05-09T03:05:34.621Z,13.00
2024-05-09T03:09:17.059Z,13.00
2024-05-09T03:12:59.058Z,12.90
2024-05-09T03:16:41.038Z,12.80
2024-05-09T03:20:27.605Z,12.90
2024-05-09T03:24:14.756Z,12.90
2024-05-09T03:27:56.808Z,12.90
2024-05-09T03:31:39.388Z,12.90
2024-05-09T03:35:21.488Z,13.00
2024-05-09T03:39:03.475Z,13.00
2024-05-09T03:42:45.448Z,13.00
2024-05-09T03:46:27.358Z,13.00
2024-05-09T03:50:15.204Z,13.00
2024-05-09T03:54:00.989Z,13.00
2024-05-09T03:57:42.897Z,13.00
2024-05-09T04:01:25.661Z,13.00
2024-05-09T04:05:07.678Z,13.00
2024-05-09T04:08:49.705Z,13.00
2024-05-09T04:12:31.632Z,13.00
2024-05-09T04:16:13.595Z,13.00
2024-05-09T04:19:56.051Z,12.90
2024-05-09T04:23:38.795Z,12.90
2024-05-09T04:27:20.708Z,12.80
2024-05-09T04:31:02.665Z,12.80
2024-05-09T04:34:44.604Z,12.70
2024-05-09T04:38:26.636Z,12.60
2024-05-09T04:42:08.601Z,12.50
2024-05-09T04:45:50.906Z,12.50
2024-05-09T04:49:32.903Z,12.50
2024-05-09T04:53:18.282Z,12.50
2024-05-09T04:57:00.300Z,12.50
2024-05-09T05:00:42.385Z,12.60
2024-05-09T05:04:25.074Z,12.50
2024-05-09T05:08:15.299Z,12.50
2024-05-09T05:11:59.609Z,12.40
2024-05-09T05:15:41.617Z,12.40
2024-05-09T05:19:23.675Z,12.30
2024-05-09T05:23:08.639Z,12.30
2024-05-09T05:26:50.555Z,12.30
2024-05-09T05:30:34.780Z,12.30
2024-05-09T05:34:17.157Z,12.30
2024-05-09T05:37:59.101Z,12.30
2024-05-09T05:41:41.147Z,12.30
2024-05-09T05:45:23.274Z,12.30
2024-05-09T05:49:05.399Z,12.40
2024-05-09T05:52:47.500Z,12.40
2024-05-09T05:56:29.400Z,12.40
2024-05-09T06:00:18.082Z,12.50
2024-05-09T06:04:07.353Z,12.50
2024-05-09T06:07:49.325Z,12.60
2024-05-09T06:11:31.433Z,12.60
2024-05-09T06:15:13.812Z,12.70
2024-05-09T06:18:55.806Z,12.70
2024-05-09T06:22:37.905Z,12.90
2024-05-09T06:26:20.079Z,12.90
2024-05-09T06:30:02.067Z,13.00
2024-05-09T06:33:44.148Z,13.00
2024-05-09T06:37:26.195Z,13.10
2024-05-09T06:41:08.156Z,13.20
2024-05-09T06:44:50.192Z,13.30
2024-05-09T06:48:32.291Z,13.50
2024-05-09T06:52:14.381Z,14.00
2024-05-09T06:55:56.284Z,14.30
2024-05-09T06:59:38.311Z,14.50
2024-05-09T07:03:20.438Z,14.60
2024-05-09T07:07:04.423Z,14.70
2024-05-09T07:10:46.763Z,14.70
2024-05-09T07:14:29.248Z,14.70
2024-05-09T07:18:17.571Z,14.80
2024-05-09T07:22:00.623Z,14.70
2024-05-09T07:25:42.684Z,14.80
2024-05-09T07:29:24.736Z,14.90
2024-05-09T07:33:06.757Z,14.90
2024-05-09T07:36:48.842Z,14.90
2024-05-09T07:40:35.926Z,15.00
2024-05-09T07:44:19.058Z,15.00
2024-05-09T07:53:17.458Z,15.20
2024-05-09T07:55:47.965Z,15.30
2024-05-09T07:59:30.854Z,15.40
2024-05-09T08:03:13.951Z,15.60
2024-05-09T08:06:55.955Z,15.70
2024-05-09T08:10:37.959Z,15.90
2024-05-09T08:14:19.924Z,16.20
2024-05-09T08:18:02.031Z,16.60
2024-05-09T08:21:44.208Z,17.20
2024-05-09T08:25:26.237Z,18.00
2024-05-09T08:29:08.187Z,19.00
2024-05-09T08:32:50.155Z,19.90
2024-05-09T08:36:32.523Z,20.70
2024-05-09T08:40:19.917Z,21.00
2024-05-09T08:44:10.063Z,21.00
2024-05-09T08:47:53.573Z,20.90
2024-05-09T08:51:35.574Z,20.70
2024-05-09T08:55:17.603Z,20.50
2024-05-09T08:59:01.679Z,20.30
2024-05-09T09:02:45.163Z,20.10
2024-05-09T09:06:28.341Z,20.00
2024-05-09T09:10:12.899Z,19.90
2024-05-09T09:13:57.125Z,19.80
2024-05-09T09:17:39.172Z,19.70
2024-05-09T09:21:22.043Z,19.60
2024-05-09T09:25:04.165Z,19.60
2024-05-09T09:28:46.998Z,19.60
2024-05-09T09:32:30.119Z,19.60
2024-05-09T09:36:14.430Z,19.70
2024-05-09T09:39:58.821Z,19.80
2024-05-09T09:43:42.898Z,20.00
2024-05-09T09:47:27.234Z,20.60
2024-05-09T09:51:09.584Z,21.30
2024-05-09T09:54:53.708Z,22.20
2024-05-09T09:58:38.605Z,23.20
2024-05-09T10:02:20.736Z,24.20
2024-05-09T10:06:04.151Z,25.00
2024-05-09T10:09:46.203Z,25.80
2024-05-09T10:13:37.286Z,26.70
2024-05-09T10:17:19.904Z,27.60
2024-05-09T10:21:01.876Z,28.30
2024-05-09T10:24:50.234Z,28.80
2024-05-09T10:28:33.593Z,29.20
2024-05-09T10:32:16.614Z,29.60
2024-05-09T10:36:03.641Z,30.10
2024-05-09T10:39:46.156Z,30.80
2024-05-09T10:43:28.692Z,31.40
2024-05-09T10:47:10.959Z,31.80
2024-05-09T10:50:53.089Z,32.30
2024-05-09T10:54:41.226Z,32.90
2024-05-09T10:58:23.770Z,33.40
2024-05-09T11:02:09.972Z,33.60
2024-05-09T11:05:53.279Z,33.80
2024-05-09T11:09:37.392Z,33.90
2024-05-09T11:13:36.416Z,34.10
2024-05-09T11:17:18.468Z,34.40
2024-05-09T11:21:00.445Z,34.60
2024-05-09T11:24:42.393Z,34.80
2024-05-09T11:28:26.905Z,35.00
2024-05-09T11:32:11.569Z,35.30
2024-05-09T11:35:53.667Z,35.30
2024-05-09T11:39:35.856Z,35.40
2024-05-09T11:43:17.972Z,35.30
2024-05-09T11:46:59.966Z,34.90
2024-05-09T11:50:42.046Z,34.80
2024-05-09T11:54:24.038Z,34.90
2024-05-09T11:58:06.055Z,35.40
2024-05-09T12:01:48.071Z,36.10
2024-05-09T12:05:30.186Z,36.60
2024-05-09T12:09:12.198Z,37.00
2024-05-09T12:12:54.268Z,37.60
2024-05-09T12:16:36.330Z,37.90
2024-05-09T12:20:25.811Z,38.20
2024-05-09T12:24:18.278Z,38.40
2024-05-09T12:28:00.887Z,38.80
2024-05-09T12:31:43.163Z,39.00
2024-05-09T12:35:25.862Z,38.80
2024-05-09T12:39:09.565Z,38.90
2024-05-09T12:42:51.514Z,39.10
2024-05-09T12:46:33.488Z,39.40
2024-05-09T12:50:22.398Z,39.70
2024-05-09T12:54:11.463Z,39.80
2024-05-09T12:57:53.542Z,40.00
2024-05-09T13:01:35.527Z,39.80
2024-05-09T13:05:17.779Z,39.80
2024-05-09T13:08:59.902Z,40.10
2024-05-09T13:12:41.834Z,40.40
2024-05-09T13:16:24.048Z,40.40
2024-05-09T13:20:09.302Z,40.60
2024-05-09T13:23:54.274Z,40.80
2024-05-09T13:27:36.894Z,41.00
2024-05-09T13:31:19.871Z,40.90
2024-05-09T13:35:01.855Z,40.80
2024-05-09T13:38:43.838Z,40.20
2024-05-09T13:42:25.772Z,39.90
2024-05-09T13:46:07.822Z,40.00
2024-05-09T13:49:50.185Z,40.30
2024-05-09T13:53:32.129Z,40.60
2024-05-09T13:57:14.259Z,40.60
2024-05-09T14:00:56.303Z,40.50
2024-05-09T14:04:38.657Z,40.10
2024-05-09T14:08:22.540Z,39.00
2024-05-09T14:12:05.244Z,37.50
2024-05-09T14:15:47.417Z,36.00
2024-05-09T14:19:29.633Z,34.80
2024-05-09T14:23:11.799Z,34.00
2024-05-09T14:26:53.804Z,33.00
2024-05-09T14:30:37.882Z,32.20
2024-05-09T14:34:21.004Z,31.50
2024-05-09T14:38:03.865Z,30.90
2024-05-09T14:41:46.758Z,30.50
2024-05-09T14:45:28.730Z,30.30
2024-05-09T14:49:12.429Z,30.10
2024-05-09T14:52:54.705Z,29.90
2024-05-09T14:56:36.668Z,29.80
2024-05-09T15:00:26.127Z,29.70
2024-05-09T15:04:11.559Z,29.60
2024-05-09T15:07:53.695Z,29.50
2024-05-09T15:11:35.725Z,29.40
2024-05-09T15:15:18.208Z,29.30
2024-05-09T15:19:00.360Z,29.10
2024-05-09T15:22:42.318Z,28.90
2024-05-09T15:26:27.361Z,28.70
2024-05-09T15:30:10.832Z,28.50
2024-05-09T15:33:53.248Z,28.40
2024-05-09T15:37:35.226Z,28.30
2024-05-09T15:41:17.242Z,28.30
2024-05-09T15:45:00.936Z,28.30
2024-05-09T15:48:44.836Z,28.20
2024-05-09T15:52:26.921Z,28.20
2024-05-09T15:56:10.955Z,28.10
2024-05-09T15:59:52.874Z,28.20
2024-05-09T16:03:34.910Z,28.20
2024-05-09T16:07:16.989Z,28.30
2024-05-09T16:10:59.304Z,28.30
2024-05-09T16:14:41.277Z,28.30
2024-05-09T16:18:23.447Z,28.20
2024-05-09T16:22:05.490Z,28.20
2024-05-09T16:25:48.400Z,28.10
2024-05-09T16:29:30.613Z,28.10
2024-05-09T16:33:12.738Z,28.10
2024-05-09T16:36:55.005Z,28.00
2024-05-09T16:40:40.182Z,28.00
2024-05-09T16:44:23.421Z,28.00
2024-05-09T16:48:06.630Z,28.00
2024-05-09T16:51:48.798Z,28.00
2024-05-09T16:55:30.924Z,27.90
2024-05-09T16:59:12.979Z,27.90
2024-05-09T17:02:55.073Z,27.90
2024-05-09T17:06:37.115Z,27.80
2024-05-09T17:10:26.778Z,27.80
2024-05-09T17:14:14.277Z,27.70
2024-05-09T17:17:56.802Z,27.70
2024-05-09T17:21:38.831Z,27.70
2024-05-09T17:25:21.310Z,27.70
2024-05-09T17:29:03.248Z,27.60
2024-05-09T17:32:45.227Z,27.60
2024-05-09T17:36:27.193Z,27.60
2024-05-09T17:40:16.700Z,27.40
2024-05-09T17:43:59.086Z,27.20
2024-05-09T17:47:41.267Z,27.10
2024-05-09T17:51:23.161Z,27.10
2024-05-09T17:55:06.537Z,27.00
2024-05-09T17:58:48.989Z,26.90
2024-05-09T18:02:31.590Z,26.70
2024-05-09T18:06:13.580Z,26.50
2024-05-09T18:09:55.510Z,26.30
2024-05-09T18:13:37.412Z,26.20
2024-05-09T18:17:22.331Z,26.10
2024-05-09T18:21:05.600Z,25.90
2024-05-09T18:24:47.622Z,25.70
2024-05-09T18:28:29.698Z,25.60
2024-05-09T18:32:11.761Z,25.50
2024-05-09T18:35:53.707Z,25.50
2024-05-09T18:39:35.668Z,25.30
2024-05-09T18:43:18.200Z,25.20
2024-05-09T18:47:01.035Z,25.10
2024-05-09T18:50:42.961Z,25.00
2024-05-09T18:54:24.889Z,24.90
2024-05-09T18:58:07.298Z,24.80
2024-05-09T19:01:49.607Z,24.60
2024-05-09T19:05:31.888Z,24.60
2024-05-09T19:09:14.088Z,24.50
2024-05-09T19:12:56.057Z,24.30
2024-05-09T19:16:38.227Z,24.20
2024-05-09T19:20:25.548Z,24.20
2024-05-09T19:24:16.679Z,24.10
2024-05-09T19:27:58.737Z,23.90
2024-05-09T19:31:40.672Z,23.70
2024-05-09T19:35:22.586Z,23.60
2024-05-09T19:39:04.512Z,23.40
2024-05-09T19:42:46.630Z,23.30
2024-05-09T19:46:28.682Z,23.10
2024-05-09T19:50:13.899Z,23.00
2024-05-09T19:53:58.340Z,22.90
2024-05-09T19:57:40.302Z,22.80
2024-05-09T20:01:22.373Z,22.60
2024-05-09T20:05:05.066Z,22.50
2024-05-09T20:08:47.482Z,22.40
2024-05-09T20:12:29.395Z,22.20
2024-05-09T20:16:11.899Z,22.10
2024-05-09T20:19:54.659Z,21.90
2024-05-09T20:23:36.928Z,21.80
2024-05-09T20:27:18.835Z,21.60
2024-05-09T20:31:00.781Z,21.40
2024-05-09T20:34:42.678Z,21.40
2024-05-09T20:38:25.081Z,21.20
2024-05-09T20:42:06.988Z,21.10
2024-05-09T20:45:49.084Z,21.10
2024-05-09T20:49:31.116Z,20.90
2024-05-09T20:53:14.295Z,20.80
2024-05-09T20:56:56.951Z,20.70
2024-05-09T21:00:42.785Z,20.50
2024-05-09T21:04:27.173Z,20.50
2024-05-09T21:08:09.376Z,20.40
2024-05-09T21:11:52.032Z,20.40
2024-05-09T21:15:34.249Z,20.30
2024-05-09T21:19:16.637Z,20.20
2024-05-09T21:22:58.815Z,20.10
2024-05-09T21:26:40.927Z,20.00
2024-05-09T21:30:32.381Z,19.90
2024-05-09T21:34:22.525Z,19.90
2024-05-09T21:38:04.813Z,19.70
2024-05-09T21:41:46.836Z,19.60
2024-05-09T21:45:28.854Z,19.60
2024-05-09T21:49:11.151Z,19.50
2024-05-09T21:52:53.090Z,19.40
2024-05-09T21:56:34.956Z,19.30
2024-05-09T22:00:28.522Z,19.10
2024-05-09T22:04:17.366Z,19.00
2024-05-09T22:07:59.438Z,18.90
2024-05-09T22:11:41.532Z,18.80
2024-05-09T22:15:23.536Z,18.80
2024-05-09T22:19:05.898Z,18.60
2024-05-09T22:22:47.836Z,18.60
2024-05-09T22:26:29.725Z,18.50
2024-05-09T22:30:17.680Z,18.40
2024-05-09T22:34:05.732Z,18.40
2024-05-09T22:37:47.812Z,18.30
2024-05-09T22:41:29.882Z,18.20
2024-05-09T22:45:11.858Z,18.10
2024-05-09T22:48:53.863Z,18.00
2024-05-09T22:52:37.366Z,18.00
2024-05-09T22:56:29.170Z,17.90
2024-05-09T23:00:15.725Z,17.90
2024-05-09T23:03:58.264Z,17.90
2024-05-09T23:07:40.343Z,17.80
2024-05-09T23:11:22.285Z,17.80
2024-05-09T23:15:04.747Z,17.70
2024-05-09T23:18:47.623Z,17.60
2024-05-09T23:22:30.688Z,17.50
2024-05-09T23:26:12.606Z,17.40
2024-05-09T23:29:54.528Z,17.40
2024-05-09T23:33:36.595Z,17.30
2024-05-09T23:37:18.844Z,17.20
2024-05-09T23:41:00.995Z,17.10
2024-05-09T23:44:43.700Z,17.10
2024-05-09T23:48:25.587Z,17.00
2024-05-09T23:52:07.717Z,16.90
2024-05-09T23:55:49.630Z,16.90
2024-05-09T23:59:31.862Z,16.80
